createdAt,value
2017-12-12T00:02:15.278Z,98051.52
2017-12-12T00:04:43.567Z,98069.44
2017-12-12T00:07:14.756Z,98078.67
2017-12-12T00:09:43.049Z,98085.31
2017-12-12T00:12:14.904Z,98097.95
2017-12-12T00:14:43.151Z,98129.42
2017-12-12T00:17:14.849Z,98128.39
2017-12-12T00:19:43.104Z,98148.72
2017-12-12T00:22:15.761Z,98145.58
2017-12-12T00:24:44.021Z,98166.52
2017-12-12T00:27:15.840Z,98176.40
2017-12-12T00:29:44.264Z,98202.66
2017-12-12T00:32:16.225Z,98214.20
2017-12-12T00:34:44.510Z,98224.14
2017-12-12T00:37:15.743Z,98245.53
2017-12-12T00:39:44.146Z,98255.60
2017-12-12T00:42:16.311Z,98258.30
2017-12-12T00:44:44.557Z,98282.92
2017-12-12T00:47:14.573Z,98283.38
2017-12-12T00:49:43.568Z,98294.02
2017-12-12T00:52:15.400Z,98298.41
2017-12-12T00:54:43.664Z,98307.94
2017-12-12T00:57:14.869Z,98313.71
2017-12-12T00:59:43.154Z,98320.75
2017-12-12T01:02:14.986Z,98333.22
2017-12-12T01:04:43.245Z,98345.25
2017-12-12T01:07:15.940Z,98368.65
2017-12-12T01:09:44.201Z,98374.99
2017-12-12T01:12:15.730Z,98384.48
2017-12-12T01:14:43.989Z,98390.93
2017-12-12T01:17:15.388Z,98406.02
2017-12-12T01:19:43.686Z,98411.05
2017-12-12T01:22:15.522Z,98420.41
2017-12-12T01:24:43.757Z,98421.98
2017-12-12T01:27:14.607Z,98437.28
2017-12-12T01:29:42.904Z,98443.37
2017-12-12T01:32:14.577Z,98453.66
2017-12-12T01:34:42.845Z,98456.95
2017-12-12T01:37:14.418Z,98467.83
2017-12-12T01:39:42.722Z,98476.46
2017-12-12T01:42:14.490Z,98482.88
2017-12-12T01:44:42.749Z,98497.47
2017-12-12T01:47:14.271Z,98501.97
2017-12-12T01:49:42.529Z,98517.00
2017-12-12T01:52:13.972Z,98523.42
2017-12-12T01:54:42.259Z,98526.02
2017-12-12T01:57:16.917Z,98534.50
2017-12-12T01:59:45.201Z,98544.43
2017-12-12T02:02:15.170Z,98550.54
2017-12-12T02:04:43.588Z,98569.21
2017-12-12T02:07:15.721Z,98578.50
2017-12-12T02:09:43.997Z,98589.71
2017-12-12T02:12:15.264Z,98600.41
2017-12-12T02:14:44.283Z,98613.68
2017-12-12T02:17:15.680Z,98623.23
2017-12-12T02:19:44.308Z,98636.59
2017-12-12T02:22:16.339Z,98639.17
2017-12-12T02:24:44.618Z,98648.12
2017-12-12T02:27:15.974Z,98670.43
2017-12-12T02:29:44.248Z,98680.73
2017-12-12T02:32:16.175Z,98685.16
2017-12-12T02:34:44.449Z,98691.06
2017-12-12T02:37:16.876Z,98697.53
2017-12-12T02:39:45.161Z,98710.08
2017-12-12T02:42:15.272Z,98719.08
2017-12-12T02:44:43.549Z,98719.16
2017-12-12T02:47:15.696Z,98736.84
2017-12-12T02:49:43.966Z,98737.59
2017-12-12T02:52:16.086Z,98752.86
2017-12-12T02:54:44.453Z,98758.45
2017-12-12T02:57:15.756Z,98772.65
2017-12-12T02:59:44.616Z,98776.25
2017-12-12T03:02:16.028Z,98787.08
2017-12-12T03:04:44.482Z,98787.65
2017-12-12T03:07:17.008Z,98792.36
2017-12-12T03:09:45.552Z,98811.38
2017-12-12T03:12:14.851Z,98816.27
2017-12-12T03:14:43.126Z,98833.17
2017-12-12T03:17:18.233Z,98847.92
2017-12-12T03:19:46.514Z,98853.62
2017-12-12T03:22:14.790Z,98868.58
2017-12-12T03:24:43.070Z,98879.59
2017-12-12T03:27:18.210Z,98891.23
2017-12-12T03:29:46.847Z,98900.34
2017-12-12T03:32:15.669Z,98907.03
2017-12-12T03:34:43.960Z,98925.63
2017-12-12T03:37:14.790Z,98928.07
2017-12-12T03:39:43.066Z,98940.63
2017-12-12T03:42:18.300Z,98952.81
2017-12-12T03:44:46.562Z,98962.68
2017-12-12T03:47:14.854Z,98969.95
2017-12-12T03:49:43.152Z,98990.73
2017-12-12T03:52:18.806Z,98992.91
2017-12-12T03:54:47.157Z,98998.70
2017-12-12T03:57:15.413Z,99008.97
2017-12-12T03:59:43.682Z,99019.50
2017-12-12T04:02:14.675Z,99023.42
2017-12-12T04:04:42.953Z,99025.58
2017-12-12T04:07:14.660Z,99041.14
2017-12-12T04:09:43.169Z,99054.98
2017-12-12T04:12:14.586Z,99062.93
2017-12-12T04:14:43.094Z,99073.81
2017-12-12T04:17:18.256Z,99081.31
2017-12-12T04:19:46.520Z,99091.57
2017-12-12T04:22:14.809Z,99106.34
2017-12-12T04:24:43.435Z,99120.58
2017-12-12T04:27:15.701Z,99125.89
2017-12-12T04:29:44.008Z,99134.80
2017-12-12T04:32:15.496Z,99141.16
2017-12-12T04:34:44.044Z,99158.89
2017-12-12T04:37:15.819Z,99171.70
2017-12-12T04:39:44.104Z,99184.52
2017-12-12T04:42:16.141Z,99195.83
2017-12-12T04:44:44.420Z,99192.21
2017-12-12T04:47:15.844Z,99206.95
2017-12-12T04:49:44.155Z,99216.87
2017-12-12T04:52:15.474Z,99225.34
2017-12-12T04:54:43.849Z,99238.08
2017-12-12T04:57:15.259Z,99252.67
2017-12-12T04:59:43.705Z,99263.09
2017-12-12T05:02:14.709Z,99274.45
2017-12-12T05:04:42.990Z,99289.94
2017-12-12T05:07:14.844Z,99298.09
2017-12-12T05:09:43.118Z,99309.33
2017-12-12T05:12:14.768Z,99315.48
2017-12-12T05:14:43.056Z,99319.38
2017-12-12T05:17:18.497Z,99337.48
2017-12-12T05:19:46.804Z,99348.31
2017-12-12T05:22:15.101Z,99361.49
2017-12-12T05:24:43.622Z,99371.80
2017-12-12T05:27:14.936Z,99379.00
2017-12-12T05:29:43.209Z,99383.37
2017-12-12T05:32:14.536Z,99389.66
2017-12-12T05:34:43.692Z,99397.14
2017-12-12T05:37:15.804Z,99399.27
2017-12-12T05:39:44.162Z,99406.84
2017-12-12T05:42:15.333Z,99417.72
2017-12-12T05:44:43.627Z,99430.28
2017-12-12T05:47:15.079Z,99434.25
2017-12-12T05:49:43.313Z,99454.42
2017-12-12T05:52:17.326Z,99460.53
2017-12-12T05:54:45.625Z,99471.83
2017-12-12T05:57:14.941Z,99490.75
2017-12-12T05:59:43.600Z,99499.42
2017-12-12T06:02:15.718Z,99491.74
2017-12-12T06:04:43.994Z,99502.05
2017-12-12T06:07:14.745Z,99518.62
2017-12-12T06:09:43.031Z,99520.95
2017-12-12T06:12:18.273Z,99530.53
2017-12-12T06:14:46.658Z,99542.72
2017-12-12T06:17:15.341Z,99551.30
2017-12-12T06:19:43.605Z,99551.81
2017-12-12T06:22:15.066Z,99558.67
2017-12-12T06:24:43.309Z,99565.10
2017-12-12T06:27:15.455Z,99565.87
2017-12-12T06:29:43.848Z,99577.27
2017-12-12T06:32:15.648Z,99576.34
2017-12-12T06:34:43.941Z,99587.03
2017-12-12T06:37:15.008Z,99588.79
2017-12-12T06:39:43.260Z,99591.68
2017-12-12T06:42:14.585Z,99601.67
2017-12-12T06:44:42.865Z,99606.87
2017-12-12T06:47:14.161Z,99608.52
2017-12-12T06:49:42.727Z,99612.50
2017-12-12T06:52:17.629Z,99631.05
2017-12-12T06:54:45.916Z,99631.44
2017-12-12T06:57:15.008Z,99633.34
2017-12-12T06:59:43.533Z,99641.20
2017-12-12T07:02:14.734Z,99640.74
2017-12-12T07:04:43.206Z,99653.94
2017-12-12T07:07:18.512Z,99666.09
2017-12-12T07:09:46.806Z,99664.42
2017-12-12T07:12:15.108Z,99676.50
2017-12-12T07:14:43.374Z,99686.73
2017-12-12T07:17:14.910Z,99692.22
2017-12-12T07:19:43.187Z,99698.48
2017-12-12T07:22:18.197Z,99712.34
2017-12-12T07:24:46.492Z,99719.48
2017-12-12T07:27:14.764Z,99732.09
2017-12-12T07:29:43.066Z,99739.06
2017-12-12T07:32:16.176Z,99743.91
2017-12-12T07:34:44.466Z,99747.23
2017-12-12T07:37:16.398Z,99744.73
2017-12-12T07:39:44.672Z,99748.94
2017-12-12T07:42:16.027Z,99761.04
2017-12-12T07:44:44.286Z,99764.73
2017-12-12T07:47:15.506Z,99770.42
2017-12-12T07:49:43.765Z,99778.88
2017-12-12T07:52:14.721Z,99789.05
2017-12-12T07:54:43.009Z,99791.41
2017-12-12T07:57:14.561Z,99800.91
2017-12-12T07:59:42.983Z,99806.86
2017-12-12T08:02:14.411Z,99811.73
2017-12-12T08:04:43.092Z,99825.52
2017-12-12T08:07:14.900Z,99831.11
2017-12-12T08:09:43.476Z,99832.84
2017-12-12T08:12:15.520Z,99840.89
2017-12-12T08:14:44.201Z,99844.64
2017-12-12T08:17:16.052Z,99846.55
2017-12-12T08:19:44.322Z,99854.23
2017-12-12T08:22:16.513Z,99858.42
2017-12-12T08:24:44.808Z,99865.25
2017-12-12T08:27:17.925Z,99874.07
2017-12-12T08:29:46.208Z,99882.61
2017-12-12T08:32:15.442Z,99891.99
2017-12-12T08:34:43.729Z,99894.35
2017-12-12T08:37:14.752Z,99907.35
2017-12-12T08:39:43.054Z,99919.00
2017-12-12T08:42:15.929Z,99924.97
2017-12-12T08:44:44.204Z,99928.31
2017-12-12T08:47:15.520Z,99933.39
2017-12-12T08:49:43.817Z,99944.44
2017-12-12T08:52:14.733Z,99947.56
2017-12-12T08:54:43.011Z,99947.77
2017-12-12T08:57:14.490Z,99952.89
2017-12-12T08:59:42.762Z,99961.17
2017-12-12T09:02:17.769Z,99970.30
2017-12-12T09:04:46.038Z,99979.88
2017-12-12T09:07:15.565Z,99997.83
2017-12-12T09:09:43.829Z,99996.51
2017-12-12T09:12:15.047Z,100007.25
2017-12-12T09:14:43.323Z,100010.34
2017-12-12T09:17:15.688Z,100009.38
2017-12-12T09:19:43.987Z,100013.20
2017-12-12T09:22:15.918Z,100022.41
2017-12-12T09:24:44.184Z,100028.87
2017-12-12T09:27:16.304Z,100027.73
2017-12-12T09:32:21.533Z,100045.22
2017-12-12T09:34:49.893Z,100058.58
2017-12-12T09:37:18.313Z,100055.55
2017-12-12T09:39:47.012Z,100065.76
2017-12-12T09:42:15.286Z,100072.64
2017-12-12T09:44:43.552Z,100078.08
2017-12-12T09:47:15.251Z,100077.27
2017-12-12T09:49:43.545Z,100081.06
2017-12-12T09:52:14.823Z,100087.36
2017-12-12T09:54:43.126Z,100089.09
2017-12-12T09:57:18.050Z,100091.79
2017-12-12T09:59:46.617Z,100095.97
2017-12-12T10:02:14.890Z,100095.02
2017-12-12T10:04:43.177Z,100094.75
2017-12-12T10:07:14.593Z,100100.08
2017-12-12T10:09:42.860Z,100093.91
2017-12-12T10:12:14.486Z,100101.00
2017-12-12T10:14:42.718Z,100105.97
2017-12-12T10:17:14.560Z,100108.02
2017-12-12T10:19:43.650Z,100121.30
2017-12-12T10:22:15.573Z,100119.10
2017-12-12T10:24:44.005Z,100120.01
2017-12-12T10:27:16.209Z,100119.21
2017-12-12T10:29:44.474Z,100129.09
2017-12-12T10:32:16.438Z,100132.87
2017-12-12T10:34:44.717Z,100128.98
2017-12-12T10:37:14.903Z,100136.95
2017-12-12T10:39:43.160Z,100129.26
2017-12-12T10:42:20.490Z,100127.64
2017-12-12T10:44:48.773Z,100127.66
2017-12-12T10:47:17.718Z,100136.17
2017-12-12T10:49:46.010Z,100152.72
2017-12-12T10:52:16.237Z,100148.83
2017-12-12T10:54:44.512Z,100161.41
2017-12-12T10:57:16.612Z,100147.62
2017-12-12T10:59:44.906Z,100152.41
2017-12-12T11:02:14.950Z,100148.10
2017-12-12T11:04:43.234Z,100150.80
2017-12-12T11:07:18.281Z,100146.55
2017-12-12T11:09:46.633Z,100152.83
2017-12-12T11:12:14.995Z,100155.90
2017-12-12T11:14:43.271Z,100155.97
2017-12-12T11:17:14.647Z,100155.21
2017-12-12T11:19:42.916Z,100164.45
2017-12-12T11:22:14.486Z,100176.22
2017-12-12T11:24:42.772Z,100174.63
2017-12-12T11:27:19.873Z,100174.72
2017-12-12T11:29:48.140Z,100158.57
2017-12-12T11:32:16.417Z,100154.52
2017-12-12T11:34:44.701Z,100150.69
2017-12-12T11:37:16.744Z,100164.62
2017-12-12T11:39:45.181Z,100169.48
2017-12-12T11:42:15.633Z,100178.74
2017-12-12T11:44:43.929Z,100184.81
2017-12-12T11:47:16.042Z,100184.25
2017-12-12T11:49:44.345Z,100188.61
2017-12-12T11:52:16.461Z,100197.68
2017-12-12T11:54:44.759Z,100192.33
2017-12-12T11:57:14.750Z,100199.65
2017-12-12T11:59:43.281Z,100197.87
2017-12-12T12:02:18.501Z,100205.06
2017-12-12T12:04:47.003Z,100220.16
2017-12-12T12:07:15.762Z,100216.87
2017-12-12T12:09:44.026Z,100226.26
2017-12-12T12:12:16.040Z,100222.15
2017-12-12T12:14:44.362Z,100231.41
2017-12-12T12:17:16.329Z,100239.84
2017-12-12T12:19:44.635Z,100238.45
2017-12-12T12:22:16.670Z,100251.33
2017-12-12T12:24:44.949Z,100253.55
2017-12-12T12:27:14.909Z,100247.56
2017-12-12T12:29:43.193Z,100253.95
2017-12-12T12:32:18.766Z,100255.27
2017-12-12T12:34:47.040Z,100262.70
2017-12-12T12:37:15.385Z,100261.17
2017-12-12T12:39:43.913Z,100263.91
2017-12-12T12:42:15.574Z,100265.83
2017-12-12T12:44:43.853Z,100267.95
2017-12-12T12:47:15.161Z,100271.81
2017-12-12T12:49:43.436Z,100272.33
2017-12-12T12:52:15.934Z,100267.87
2017-12-12T12:54:44.198Z,100249.00
2017-12-12T12:57:16.208Z,100256.41
2017-12-12T12:59:44.522Z,100251.95
2017-12-12T13:02:16.539Z,100258.81
2017-12-12T13:04:44.824Z,100264.89
2017-12-12T13:07:14.729Z,100269.22
2017-12-12T13:09:43.004Z,100272.89
2017-12-12T13:12:14.455Z,100274.77
2017-12-12T13:14:42.807Z,100287.77
2017-12-12T13:17:17.768Z,100293.58
2017-12-12T13:19:46.057Z,100302.45
2017-12-12T13:22:14.865Z,100302.34
2017-12-12T13:24:43.136Z,100307.98
2017-12-12T13:27:14.664Z,100310.26
2017-12-12T13:29:43.179Z,100314.62
2017-12-12T13:32:14.900Z,100315.88
2017-12-12T13:34:43.170Z,100311.14
2017-12-12T13:37:15.321Z,100326.40
2017-12-12T13:39:43.716Z,100330.13
2017-12-12T13:42:15.975Z,100331.80
2017-12-12T13:44:44.758Z,100337.31
2017-12-12T13:47:16.069Z,100350.95
2017-12-12T13:49:44.388Z,100346.94
2017-12-12T13:52:16.390Z,100353.28
2017-12-12T13:54:44.955Z,100365.62
2017-12-12T13:57:14.783Z,100365.13
2017-12-12T13:59:43.074Z,100381.52
2017-12-12T14:02:14.485Z,100381.88
2017-12-12T14:04:43.104Z,100391.81
2017-12-12T14:07:14.921Z,100397.17
2017-12-12T14:09:43.230Z,100401.56
2017-12-12T14:12:15.163Z,100408.27
2017-12-12T14:14:43.465Z,100404.10
2017-12-12T14:17:14.686Z,100408.00
2017-12-12T14:19:42.989Z,100413.68
2017-12-12T14:22:14.999Z,100415.75
2017-12-12T14:24:43.321Z,100423.06
2017-12-12T14:27:15.332Z,100425.06
2017-12-12T14:29:43.619Z,100425.98
2017-12-12T14:32:16.185Z,100438.06
2017-12-12T14:34:44.485Z,100440.58
2017-12-12T14:37:14.478Z,100437.80
2017-12-12T14:39:42.753Z,100444.65
2017-12-12T14:42:14.880Z,100441.64
2017-12-12T14:44:43.150Z,100461.16
2017-12-12T14:47:13.876Z,100460.09
2017-12-12T14:49:42.152Z,100465.16
2017-12-12T14:52:13.649Z,100473.23
2017-12-12T14:54:41.927Z,100480.79
2017-12-12T14:57:13.229Z,100490.09
2017-12-12T14:59:41.513Z,100484.84
2017-12-12T15:02:16.309Z,100492.82
2017-12-12T15:04:44.572Z,100499.19
2017-12-12T15:07:14.183Z,100504.58
2017-12-12T15:09:42.484Z,100503.42
2017-12-12T15:12:14.488Z,100519.45
2017-12-12T15:14:42.768Z,100514.59
2017-12-12T15:17:14.893Z,100517.22
2017-12-12T15:19:43.192Z,100531.87
2017-12-12T15:22:15.311Z,100527.69
2017-12-12T15:24:43.621Z,100535.55
2017-12-12T15:27:14.957Z,100543.01
2017-12-12T15:29:43.258Z,100541.80
2017-12-12T15:32:15.478Z,100555.86
2017-12-12T15:34:43.851Z,100561.58
2017-12-12T15:37:13.792Z,100567.13
2017-12-12T15:39:42.086Z,100569.13
2017-12-12T15:42:13.420Z,100574.36
2017-12-12T15:44:42.056Z,100580.55
2017-12-12T15:47:14.029Z,100578.54
2017-12-12T15:49:42.526Z,100585.34
2017-12-12T15:52:14.701Z,100593.97
2017-12-12T15:54:42.946Z,100589.55
2017-12-12T15:57:14.879Z,100599.07
2017-12-12T15:59:43.157Z,100600.17
2017-12-12T16:02:14.565Z,100607.97
2017-12-12T16:04:42.834Z,100620.05
2017-12-12T16:07:14.961Z,100623.59
2017-12-12T16:09:43.265Z,100615.88
2017-12-12T16:12:15.201Z,100620.55
2017-12-12T16:14:43.498Z,100630.30
2017-12-12T16:17:15.673Z,100634.09
2017-12-12T16:19:43.973Z,100638.06
2017-12-12T16:22:13.989Z,100640.16
2017-12-12T16:24:42.263Z,100637.30
2017-12-12T16:27:17.299Z,100644.70
2017-12-12T16:29:45.595Z,100651.57
2017-12-12T16:32:14.065Z,100648.58
2017-12-12T16:34:42.385Z,100657.55
2017-12-12T16:37:16.356Z,100660.81
2017-12-12T16:39:44.913Z,100669.58
2017-12-12T16:42:13.897Z,100669.36
2017-12-12T16:44:42.357Z,100682.63
2017-12-12T16:47:17.416Z,100676.02
2017-12-12T16:49:45.701Z,100681.39
2017-12-12T16:52:13.991Z,100682.59
2017-12-12T16:54:42.337Z,100684.45
2017-12-12T16:57:17.641Z,100684.25
2017-12-12T16:59:45.893Z,100687.58
2017-12-12T17:02:14.188Z,100698.47
2017-12-12T17:04:42.493Z,100702.69
2017-12-12T17:07:14.177Z,100699.93
2017-12-12T17:09:42.502Z,100713.45
2017-12-12T17:12:13.877Z,100715.97
2017-12-12T17:14:42.357Z,100724.09
2017-12-12T17:17:14.607Z,100722.77
2017-12-12T17:19:42.901Z,100724.93
2017-12-12T17:22:14.890Z,100726.86
2017-12-12T17:24:43.186Z,100729.75
2017-12-12T17:27:15.120Z,100729.98
2017-12-12T17:29:43.479Z,100726.27
2017-12-12T17:32:14.826Z,100725.98
2017-12-12T17:34:43.116Z,100728.80
2017-12-12T17:37:17.048Z,100734.91
2017-12-12T17:39:45.368Z,100737.11
2017-12-12T17:42:14.691Z,100730.27
2017-12-12T17:44:42.945Z,100735.03
2017-12-12T17:47:14.739Z,100739.05
2017-12-12T17:49:43.263Z,100741.53
2017-12-12T17:52:15.198Z,100747.64
2017-12-12T17:54:43.464Z,100752.80
2017-12-12T17:57:15.632Z,100755.45
2017-12-12T17:59:43.908Z,100751.08
2017-12-12T18:02:14.477Z,100767.83
2017-12-12T18:04:43.596Z,100768.54
2017-12-12T18:07:15.607Z,100754.06
2017-12-12T18:09:43.996Z,100689.95
2017-12-12T18:12:14.089Z,100781.16
2017-12-12T18:14:42.364Z,100783.91
2017-12-12T18:17:13.733Z,100785.50
2017-12-12T18:19:42.589Z,100791.94
2017-12-12T18:22:13.939Z,100789.87
2017-12-12T18:24:42.223Z,100792.85
2017-12-12T18:27:17.434Z,100790.98
2017-12-12T18:29:46.339Z,100798.30
2017-12-12T18:32:14.626Z,100798.27
2017-12-12T18:34:42.908Z,100802.22
2017-12-12T18:37:14.640Z,100800.69
2017-12-12T18:39:42.935Z,100813.50
2017-12-12T18:42:14.488Z,100812.47
2017-12-12T18:44:43.023Z,100824.23
2017-12-12T18:47:14.965Z,100817.79
2017-12-12T18:49:43.278Z,100823.83
2017-12-12T18:52:14.665Z,100823.46
2017-12-12T18:54:42.984Z,100827.23
2017-12-12T18:57:14.780Z,100831.16
2017-12-12T18:59:43.173Z,100831.70
2017-12-12T19:02:14.325Z,100829.34
2017-12-12T19:04:42.574Z,100837.09
2017-12-12T19:07:14.047Z,100837.81
2017-12-12T19:09:42.324Z,100834.54
2017-12-12T19:12:13.880Z,100839.12
2017-12-12T19:14:42.230Z,100836.97
2017-12-12T19:17:13.680Z,100840.86
2017-12-12T19:19:41.971Z,100834.75
2017-12-12T19:22:16.905Z,100834.98
2017-12-12T19:24:45.186Z,100836.73
2017-12-12T19:27:14.479Z,100840.64
2017-12-12T19:29:42.760Z,100843.92
2017-12-12T19:32:13.998Z,100846.13
2017-12-12T19:34:42.269Z,100844.31
2017-12-12T19:37:13.705Z,100853.39
2017-12-12T19:39:41.978Z,100845.47
2017-12-12T19:42:13.248Z,100852.67
2017-12-12T19:44:41.528Z,100842.19
2017-12-12T19:47:16.177Z,100846.13
2017-12-12T19:49:44.453Z,100852.75
2017-12-12T19:52:14.315Z,100854.95
2017-12-12T19:54:42.594Z,100859.33
2017-12-12T19:57:14.507Z,100857.25
2017-12-12T19:59:42.829Z,100862.27
2017-12-12T20:02:14.226Z,100862.25
2017-12-12T20:04:42.923Z,100869.14
2017-12-12T20:07:14.136Z,100870.84
2017-12-12T20:09:42.403Z,100870.98
2017-12-12T20:12:17.643Z,100870.24
2017-12-12T20:14:45.909Z,100868.85
2017-12-12T20:17:14.198Z,100877.55
2017-12-12T20:19:42.502Z,100877.14
2017-12-12T20:22:13.794Z,100874.80
2017-12-12T20:24:42.128Z,100875.42
2017-12-12T20:27:13.545Z,100888.53
2017-12-12T20:29:41.835Z,100883.55
2017-12-12T20:32:17.297Z,100880.95
2017-12-12T20:34:45.584Z,100887.86
2017-12-12T20:37:13.883Z,100881.88
2017-12-12T20:39:42.177Z,100888.58
2017-12-12T20:42:13.715Z,100882.19
2017-12-12T20:44:41.978Z,100889.23
2017-12-12T20:47:16.337Z,100894.25
2017-12-12T20:49:44.644Z,100887.84
2017-12-12T20:52:14.280Z,100884.36
2017-12-12T20:54:42.599Z,100887.31
2017-12-12T20:57:16.540Z,100876.40
2017-12-12T20:59:44.805Z,100875.97
2017-12-12T21:02:14.824Z,100871.48
2017-12-12T21:04:43.119Z,100872.48
2017-12-12T21:07:20.410Z,100870.73
2017-12-12T21:09:48.759Z,100876.11
2017-12-12T21:12:17.054Z,100869.40
2017-12-12T21:14:45.490Z,100872.23
2017-12-12T21:17:14.716Z,100872.69
2017-12-12T21:19:43.048Z,100880.17
2017-12-12T21:22:15.288Z,100883.73
2017-12-12T21:24:43.563Z,100879.34
2017-12-12T21:27:14.888Z,100883.86
2017-12-12T21:29:43.170Z,100884.91
2017-12-12T21:32:14.696Z,100878.67
2017-12-12T21:34:42.984Z,100888.52
2017-12-12T21:37:15.022Z,100890.67
2017-12-12T21:39:43.306Z,100889.88
2017-12-12T21:42:16.045Z,100897.81
2017-12-12T21:44:44.340Z,100886.32
2017-12-12T21:47:14.032Z,100897.16
2017-12-12T21:49:42.328Z,100898.34
2017-12-12T21:52:13.943Z,100905.14
2017-12-12T21:54:42.299Z,100908.88
2017-12-12T21:57:17.537Z,100903.70
2017-12-12T21:59:45.793Z,100905.38
2017-12-12T22:02:14.730Z,100906.67
2017-12-12T22:04:43.002Z,100903.38
2017-12-12T22:07:14.621Z,100894.64
2017-12-12T22:09:42.902Z,100894.73
2017-12-12T22:12:15.119Z,100893.65
2017-12-12T22:14:43.389Z,100904.59
2017-12-12T22:17:15.906Z,100899.66
2017-12-12T22:19:44.256Z,100896.17
2017-12-12T22:22:15.777Z,100897.87
2017-12-12T22:24:44.063Z,100904.14
2017-12-12T22:27:14.102Z,100895.53
2017-12-12T22:29:42.372Z,100896.12
2017-12-12T22:32:17.394Z,100902.55
2017-12-12T22:34:45.684Z,100903.81
2017-12-12T22:37:14.152Z,100911.46
2017-12-12T22:39:42.473Z,100910.23
2017-12-12T22:42:16.502Z,100919.45
2017-12-12T22:44:44.810Z,100918.75
2017-12-12T22:47:14.096Z,100915.95
2017-12-12T22:49:42.545Z,100920.64
2017-12-12T22:52:13.986Z,100924.00
2017-12-12T22:54:42.268Z,100916.91
2017-12-12T22:57:13.921Z,100923.88
2017-12-12T22:59:42.225Z,100923.19
2017-12-12T23:02:13.770Z,100922.56
2017-12-12T23:04:42.048Z,100930.97
2017-12-12T23:07:13.657Z,100929.96
2017-12-12T23:09:42.020Z,100923.86
2017-12-12T23:12:13.791Z,100930.34
2017-12-12T23:14:42.166Z,100923.25
2017-12-12T23:17:14.299Z,100919.08
2017-12-12T23:19:42.592Z,100917.45
2017-12-12T23:22:16.588Z,100918.13
2017-12-12T23:24:44.875Z,100912.30
2017-12-12T23:27:14.277Z,100919.39
2017-12-12T23:29:42.826Z,100916.66
2017-12-12T23:32:14.734Z,100918.45
2017-12-12T23:34:43.030Z,100916.59
2017-12-12T23:37:14.529Z,100916.95
2017-12-12T23:39:42.842Z,100920.02
2017-12-12T23:42:14.061Z,100919.58
2017-12-12T23:44:42.332Z,100932.27
2017-12-12T23:47:13.986Z,100933.02
2017-12-12T23:49:42.424Z,100923.44
2017-12-12T23:52:17.460Z,100922.33
2017-12-12T23:54:45.745Z,100925.91
2017-12-12T23:57:14.929Z,100920.38
2017-12-12T23:59:43.530Z,100928.97
